ADDS METAR Data INFO
IDs: Format: Raw Decoded Include TAF

Data at: 0857 UTC 19 Jun 2018

KPIA 190854Z 00000KT 10SM FEW060 26/23 A2995 RMK AO2 SLP134 T02560233 55004
KPIA 190754Z 21005KT 10SM BKN060 26/23 A2993 RMK AO2 SLP130 T02610233
KPIA 190654Z 21003KT 10SM CLR 26/23 A2995 RMK AO2 LTG DSNT NE SLP133 T02610233
KPIA 190554Z 22005KT 10SM SCT060 28/23 A2996 RMK AO2 SLP137 T02780233 10322 20272 403500239 58003
KPIA 190454Z 21006KT 10SM FEW060 27/23 A2996 RMK AO2 SLP140 T02720233
KPIA 190354Z 19006KT 10SM CLR 28/24 A2997 RMK AO2 SLP141 T02780239
KPIA 190254Z 21005KT 10SM CLR 28/23 A2997 RMK AO2 SLP142 T02830233 51021
KPIA 190154Z 22004KT 10SM CLR 30/24 A2996 RMK AO2 SLP138 T03000239
KPIA 190054Z 21005KT 10SM CLR 31/24 A2995 RMK AO2 SLP133 T03110239
KPIA 182354Z 21010KT 10SM CLR 33/24 A2991 RMK AO2 SLP120 T03280239 10350 20328 55014
KPIA 182254Z 22013KT 10SM CLR 33/23 A2990 RMK AO2 SLP118 T03330233
KPIA 182154Z 23014KT 10SM CLR 34/23 A2992 RMK AO2 SLP126 T03440228
KPIA 182054Z 23011G19KT 10SM CLR 34/23 A2995 RMK AO2 SLP134 T03440233 58017
KPIA 181954Z 25011KT 10SM CLR 35/23 A2997 RMK AO2 SLP141 T03500228
KPIA 181854Z 24010KT 10SM SCT047 SCT055 34/23 A2998 RMK AO2 SLP146 T03390228
KPIA 181754Z 24010KT 10SM FEW046 SCT065 34/23 A3000 RMK AO2 SLP151 T03390233 10339 20256 58007
KPIA 181654Z 24011KT 10SM FEW037 33/24 A3001 RMK AO2 SLP156 T03330239
KPIA 181554Z 23008KT 10SM CLR 32/24 A3002 RMK AO2 SLP157 T03220239
KPIA 181454Z 25007KT 10SM CLR 31/24 A3002 RMK AO2 SLP159 T03060239 50004
KPIA 181354Z 23008KT 10SM CLR 29/23 A3003 RMK AO2 SLP162 T02890233
KPIA 181254Z 23009KT 10SM CLR 27/23 A3002 RMK AO2 SLP158 T02720228
KPIA 181154Z 22007KT 10SM CLR 26/22 A3001 RMK AO2 SLP154 T02560222 10261 20239 51010
KPIA 181054Z 20005KT 8SM CLR 24/22 A3000 RMK AO2 SLP153 T02390222
KPIA 180954Z 21005KT 10SM CLR 24/22 A2999 RMK AO2 SLP148 T02440217
KPIA 180854Z 19006KT 10SM CLR 24/22 A2998 RMK AO2 SLP144 T02440222 56008
KPIA 180754Z 21006KT 10SM CLR 25/22 A2999 RMK AO2 SLP147 T02500222
KPIA 180654Z 20008KT 10SM CLR 26/22 A2998 RMK AO2 SLP146 T02560222
KPIA 180554Z 21006KT 10SM CLR 26/22 A3000 RMK AO2 SLP152 T02610222 10306 20256 403330233 50008
KPIA 180454Z 20006KT 10SM CLR 27/22 A3000 RMK AO2 SLP152 T02670222
KPIA 180354Z 20005KT 10SM CLR 27/23 A2999 RMK AO2 SLP150 T02720228
KPIA 180254Z 19005KT 10SM CLR 28/23 A2997 RMK AO2 SLP143 T02780228 53008
KPIA 180154Z 19007KT 10SM CLR 29/24 A2996 RMK AO2 SLP140 T02890239
KPIA 180054Z 19005KT 10SM CLR 30/24 A2995 RMK AO2 SLP137 T03000239
KPIA 172354Z 19006KT 10SM CLR 31/24 A2995 RMK AO2 SLP136 T03060244 10333 20306 58014
KPIA 172254Z 21009KT 10SM CLR 32/24 A2997 RMK AO2 SLP143 T03170244
KPIA 172154Z 23008KT 10SM FEW120 33/25 A2998 RMK AO2 SLP147 T03280250